Terminal Aerodrome Forecast
Issued by NWS Los Angeles, CA

Home | Current Version | Previous Version | Text Only | Print | Product List | Glossary On
Versions: 1 2 3 4 5 6 7 8 9 10 11 12 13 14 15 16 17 18 19 20
934
FTUS46 KLOX 221504 AAA
TAFSMX
TAF AMD
KSMX 221504Z 2215/2312 00000KT 5SM BR SKC
     FM221700 28006KT P6SM SKC
     FM222100 31012KT P6SM SKC
     FM230400 VRB03KT P6SM SKC
     FM230700 VRB03KT 3SM BR OVC004=

USA.gov is the U.S. government's official web portal to all federal, state and local government web resources and services.